createdAt,value
2022-10-22T03:57:28.492Z,92.22
2022-10-22T04:00:52.115Z,92.19
2022-10-22T04:04:15.510Z,92.45
2022-10-22T04:07:39.336Z,92.41
2022-10-22T04:11:03.101Z,92.72
2022-10-22T04:14:26.424Z,92.89
2022-10-22T04:17:49.692Z,92.92
2022-10-22T04:21:14.539Z,93.04
2022-10-22T04:24:38.409Z,93.09
2022-10-22T04:28:01.805Z,93.15
2022-10-22T04:31:26.419Z,93.27
2022-10-22T04:34:49.599Z,93.23
2022-10-22T04:38:13.951Z,93.21
2022-10-22T04:41:39.268Z,93.23
2022-10-22T04:45:02.504Z,93.10
2022-10-22T04:48:25.953Z,93.40
2022-10-22T04:51:49.078Z,93.43
2022-10-22T04:55:12.640Z,93.42
2022-10-22T04:58:35.889Z,93.39
2022-10-22T05:01:59.885Z,93.38
2022-10-22T05:05:23.877Z,93.64
2022-10-22T05:08:48.132Z,93.78
2022-10-22T05:12:12.212Z,93.65
2022-10-22T05:15:36.046Z,93.70
2022-10-22T05:19:00.789Z,93.83
2022-10-22T05:22:24.330Z,93.87
2022-10-22T05:25:47.690Z,93.95
2022-10-22T05:29:11.569Z,94.00
2022-10-22T05:32:36.080Z,94.10
2022-10-22T05:35:59.829Z,94.17
2022-10-22T05:39:23.412Z,94.14
2022-10-22T05:42:46.976Z,94.22
2022-10-22T05:46:12.913Z,94.27
2022-10-22T05:49:36.328Z,94.30
2022-10-22T05:52:59.759Z,94.40
2022-10-22T05:56:24.087Z,94.47
2022-10-22T05:59:48.096Z,94.38
2022-10-22T06:03:11.301Z,94.44
2022-10-22T06:06:37.222Z,94.45
2022-10-22T06:10:01.721Z,94.64
2022-10-22T06:13:25.814Z,94.60
2022-10-22T06:16:49.750Z,94.62
2022-10-22T06:20:14.653Z,94.61
2022-10-22T06:23:39.048Z,94.68
2022-10-22T06:27:02.369Z,94.76
2022-10-22T06:30:25.880Z,94.64
2022-10-22T06:33:49.092Z,94.71
2022-10-22T06:37:13.334Z,94.82
2022-10-22T06:40:36.483Z,94.79
2022-10-22T06:50:00.328Z,94.90
2022-10-22T06:53:27.310Z,94.88
2022-10-22T06:56:54.138Z,94.67
2022-10-22T07:00:22.381Z,94.74
2022-10-22T07:03:51.242Z,94.97
2022-10-22T07:07:17.846Z,95.32
2022-10-22T07:10:44.454Z,95.37
2022-10-22T07:14:11.437Z,95.48
2022-10-22T07:21:08.952Z,95.63
2022-10-22T07:24:35.821Z,95.76
2022-10-22T07:28:02.570Z,95.73
2022-10-22T07:31:30.354Z,95.71
2022-10-22T07:34:57.191Z,95.91
2022-10-22T07:38:24.091Z,95.98
2022-10-22T07:41:50.840Z,95.94
2022-10-22T07:45:17.788Z,95.87
2022-10-22T07:48:44.453Z,95.97
2022-10-22T07:52:11.589Z,95.88
2022-10-22T07:55:39.146Z,95.95
2022-10-22T07:59:06.043Z,95.72
2022-10-22T08:02:32.794Z,95.66
2022-10-22T08:06:00.147Z,95.53
2022-10-22T08:09:26.965Z,95.42
2022-10-22T08:12:53.710Z,95.40
2022-10-22T08:16:20.619Z,95.34
2022-10-22T08:19:47.431Z,95.37
2022-10-22T08:23:14.524Z,95.37
2022-10-22T08:26:42.063Z,95.36
2022-10-22T08:30:10.946Z,95.31
2022-10-22T08:33:39.084Z,95.29
2022-10-22T08:37:08.547Z,95.27
2022-10-22T08:40:39.408Z,95.29
2022-10-22T08:44:17.857Z,94.93
2022-10-22T08:47:59.018Z,94.77
2022-10-22T08:51:28.333Z,94.73
2022-10-22T08:54:58.238Z,94.64
2022-10-22T08:58:26.381Z,94.51
2022-10-22T09:01:55.540Z,94.28
2022-10-22T09:05:34.960Z,93.90
2022-10-22T09:09:03.751Z,93.66
2022-10-22T09:12:30.901Z,93.50
2022-10-22T09:16:01.591Z,93.15
2022-10-22T09:19:36.090Z,92.84
2022-10-22T09:23:27.387Z,92.65
2022-10-22T09:26:54.263Z,92.73
2022-10-22T09:30:22.979Z,92.54
2022-10-22T09:33:51.934Z,92.49
2022-10-22T09:37:20.396Z,92.50
2022-10-22T09:40:49.885Z,92.33
2022-10-22T09:44:16.698Z,91.96
2022-10-22T09:48:01.081Z,91.49
2022-10-22T09:51:42.373Z,91.48
2022-10-22T09:55:17.909Z,91.52
2022-10-22T09:58:51.356Z,91.50
2022-10-22T10:02:37.408Z,91.33
2022-10-22T10:06:07.416Z,91.10
2022-10-22T10:09:36.424Z,91.08
2022-10-22T10:13:11.647Z,91.17
2022-10-22T10:16:49.284Z,91.33
2022-10-22T10:20:34.676Z,91.48
2022-10-22T10:24:11.943Z,91.57
2022-10-22T10:27:42.320Z,91.52
2022-10-22T10:31:18.709Z,91.61
2022-10-22T10:34:53.037Z,91.67
2022-10-22T10:38:34.158Z,91.88
2022-10-22T10:42:07.988Z,91.70
2022-10-22T10:45:44.748Z,91.76
2022-10-22T10:49:18.236Z,91.88
2022-10-22T10:52:56.442Z,91.92
2022-10-22T10:56:39.091Z,91.86
2022-10-22T11:00:11.044Z,91.87
2022-10-22T11:04:07.520Z,91.87
2022-10-22T11:07:40.628Z,91.79
2022-10-22T11:11:13.936Z,91.81
2022-10-22T11:14:51.983Z,91.83
2022-10-22T11:18:23.680Z,91.71
2022-10-22T11:21:57.578Z,91.82
2022-10-22T11:25:30.199Z,91.86
2022-10-22T11:29:00.225Z,91.65
2022-10-22T11:32:29.347Z,91.50
2022-10-22T11:35:58.616Z,91.25
2022-10-22T11:39:36.592Z,90.93
2022-10-22T11:43:08.644Z,90.76
2022-10-22T11:46:44.834Z,90.55
2022-10-22T11:50:25.367Z,90.74
2022-10-22T11:53:58.667Z,90.58
2022-10-22T11:57:29.854Z,90.79
2022-10-22T12:00:58.055Z,90.75
2022-10-22T12:04:40.806Z,90.76
2022-10-22T12:08:24.306Z,90.71
2022-10-22T12:11:53.449Z,90.58
2022-10-22T12:15:28.138Z,90.46
2022-10-22T12:19:03.072Z,90.55
2022-10-22T12:22:31.933Z,90.54
2022-10-22T12:25:59.467Z,90.48
2022-10-22T12:29:28.562Z,90.42
2022-10-22T12:32:57.091Z,90.51
2022-10-22T12:36:23.924Z,90.51
2022-10-22T12:39:50.668Z,90.47
2022-10-22T12:43:19.941Z,90.64
2022-10-22T12:46:51.758Z,90.52
2022-10-22T12:50:26.717Z,90.59
2022-10-22T12:53:55.441Z,90.57
2022-10-22T12:57:24.297Z,90.41
2022-10-22T13:00:57.323Z,90.56
2022-10-22T13:04:35.061Z,90.47
2022-10-22T13:08:09.984Z,90.50
2022-10-22T13:11:41.849Z,90.49
2022-10-22T13:15:24.436Z,90.63
2022-10-22T13:18:52.261Z,90.86
2022-10-22T13:22:36.334Z,90.83
2022-10-22T13:26:05.965Z,90.94
2022-10-22T13:29:32.526Z,91.15
2022-10-22T13:33:02.070Z,91.40
2022-10-22T13:36:29.150Z,91.48
2022-10-22T13:39:55.780Z,91.60
2022-10-22T13:43:22.830Z,91.73
2022-10-22T13:46:50.036Z,91.96
2022-10-22T13:50:19.744Z,92.05
2022-10-22T13:53:46.575Z,92.26
2022-10-22T13:57:13.392Z,92.28
2022-10-22T14:00:42.101Z,92.57
2022-10-22T14:04:14.637Z,92.51
2022-10-22T14:07:42.224Z,92.75
2022-10-22T14:11:10.879Z,92.73
2022-10-22T14:14:38.476Z,92.74
2022-10-22T14:18:07.257Z,92.84
2022-10-22T14:21:39.568Z,93.09
2022-10-22T14:25:07.133Z,92.95
2022-10-22T14:28:41.053Z,93.04
2022-10-22T14:32:20.192Z,93.14
2022-10-22T14:35:49.201Z,93.17
2022-10-22T14:39:17.799Z,93.21
2022-10-22T14:42:48.866Z,93.29
2022-10-22T14:46:17.963Z,93.35
2022-10-22T14:49:45.624Z,93.49
2022-10-22T14:53:13.752Z,93.63
2022-10-22T14:56:40.542Z,93.63
2022-10-22T15:00:09.912Z,93.73
2022-10-22T15:03:37.133Z,93.69
2022-10-22T15:07:03.908Z,93.82
2022-10-22T15:10:30.658Z,93.93
2022-10-22T15:13:57.259Z,93.90
2022-10-22T15:17:24.127Z,94.07
2022-10-22T15:20:57.740Z,94.07
2022-10-22T15:24:24.592Z,94.21
2022-10-22T15:27:52.571Z,94.19
2022-10-22T15:31:47.541Z,94.28
2022-10-22T15:35:14.509Z,94.42
2022-10-22T15:38:41.431Z,94.32
2022-10-22T15:42:08.449Z,94.57
2022-10-22T15:45:35.158Z,94.69
2022-10-22T15:49:01.739Z,94.89
2022-10-22T15:52:28.508Z,94.89
2022-10-22T15:55:55.309Z,94.86
2022-10-22T15:59:22.243Z,94.96
2022-10-22T16:02:48.889Z,95.12
2022-10-22T16:06:15.408Z,95.27
2022-10-22T16:09:42.122Z,95.28
2022-10-22T16:13:08.667Z,95.41
2022-10-22T16:16:39.611Z,95.57
2022-10-22T16:20:07.370Z,95.64
2022-10-22T16:23:34.571Z,95.66
2022-10-22T16:27:01.189Z,95.69
2022-10-22T16:30:27.871Z,95.63
2022-10-22T16:33:54.732Z,95.67
2022-10-22T16:37:21.933Z,95.71
2022-10-22T16:40:49.456Z,95.61
2022-10-22T16:44:16.322Z,95.64
2022-10-22T16:47:45.789Z,95.67
2022-10-22T16:51:16.029Z,95.68
2022-10-22T16:54:42.701Z,95.79
2022-10-22T16:58:09.582Z,95.83
2022-10-22T17:01:40.699Z,95.94
2022-10-22T17:05:09.558Z,95.88
2022-10-22T17:08:36.881Z,95.93
2022-10-22T17:12:03.751Z,95.97
2022-10-22T17:15:30.570Z,95.98
2022-10-22T17:18:58.189Z,95.83
2022-10-22T17:22:25.261Z,95.78
2022-10-22T17:25:58.567Z,95.79
2022-10-22T17:29:27.043Z,95.90
2022-10-22T17:32:54.564Z,95.82
2022-10-22T17:36:22.745Z,95.87
2022-10-22T17:39:50.125Z,95.94
2022-10-22T17:43:16.690Z,96.12
2022-10-22T17:46:45.309Z,96.17
2022-10-22T17:50:13.378Z,96.25
2022-10-22T17:53:45.656Z,96.25
2022-10-22T17:57:13.833Z,96.20
2022-10-22T18:00:40.759Z,96.32
2022-10-22T18:04:09.361Z,96.34
2022-10-22T18:07:36.006Z,96.39
2022-10-22T18:11:06.094Z,96.52
2022-10-22T18:14:32.721Z,96.79
2022-10-22T18:17:59.306Z,97.14
2022-10-22T18:21:28.174Z,97.15
2022-10-22T18:24:54.800Z,97.24
2022-10-22T18:28:21.796Z,97.31
2022-10-22T18:31:49.213Z,97.40
2022-10-22T18:35:16.019Z,97.55
2022-10-22T18:38:43.287Z,97.62
2022-10-22T18:42:10.378Z,97.87
2022-10-22T18:45:37.082Z,97.86
2022-10-22T18:49:04.472Z,97.90
2022-10-22T18:52:31.326Z,97.87
2022-10-22T18:55:57.961Z,97.87
2022-10-22T18:59:26.077Z,97.81
2022-10-22T19:02:52.794Z,97.67
2022-10-22T19:06:26.312Z,97.70
2022-10-22T19:09:53.012Z,97.77
2022-10-22T19:13:23.226Z,97.75
2022-10-22T19:16:50.312Z,97.61
2022-10-22T19:20:17.412Z,97.59
2022-10-22T19:27:16.909Z,97.45
2022-10-22T19:30:44.723Z,97.32
2022-10-22T19:34:12.331Z,97.08
2022-10-22T19:37:39.179Z,97.08
2022-10-22T19:41:06.544Z,97.05
2022-10-22T19:44:33.174Z,97.08
2022-10-22T19:47:59.938Z,97.01
2022-10-22T19:51:29.739Z,96.85
2022-10-22T19:54:56.609Z,96.53
2022-10-22T19:58:23.215Z,96.23
2022-10-22T20:01:49.955Z,96.19
2022-10-22T20:05:16.677Z,96.14
2022-10-22T20:08:43.825Z,96.12
2022-10-22T20:12:10.696Z,95.96
2022-10-22T20:15:37.691Z,95.85
2022-10-22T20:19:06.252Z,95.70
2022-10-22T20:22:32.927Z,95.68
2022-10-22T20:25:59.556Z,95.64
2022-10-22T20:29:26.234Z,95.74
2022-10-22T20:32:53.250Z,95.68
2022-10-22T20:36:22.132Z,95.76
2022-10-22T20:39:49.752Z,95.79
2022-10-22T20:43:16.406Z,95.73
2022-10-22T20:46:43.916Z,95.76
2022-10-22T20:50:13.485Z,95.72
2022-10-22T20:53:40.443Z,95.81
2022-10-22T20:57:07.369Z,95.90
2022-10-22T21:00:36.082Z,96.02
2022-10-22T21:04:03.039Z,96.12
2022-10-22T21:07:29.701Z,96.21
2022-10-22T21:10:56.430Z,96.18
2022-10-22T21:14:24.241Z,96.16
2022-10-22T21:17:51.869Z,96.27
2022-10-22T21:21:20.001Z,96.35
2022-10-22T21:24:46.920Z,96.44
2022-10-22T21:28:13.738Z,96.52
2022-10-22T21:31:41.030Z,96.21
2022-10-22T21:35:08.617Z,96.39
2022-10-22T21:38:35.670Z,96.42
2022-10-22T21:42:02.394Z,96.36
2022-10-22T21:45:29.163Z,96.58
2022-10-22T21:49:01.489Z,96.56
2022-10-22T21:52:28.694Z,96.71
2022-10-22T21:55:55.480Z,96.64
2022-10-22T21:59:22.056Z,97.20
2022-10-22T22:02:48.983Z,97.14
2022-10-22T22:06:21.129Z,97.27
2022-10-22T22:09:49.578Z,97.40
2022-10-22T22:13:17.351Z,97.64
2022-10-22T22:16:44.009Z,97.60
2022-10-22T22:20:12.153Z,97.89
2022-10-22T22:23:42.062Z,98.29
2022-10-22T22:27:09.348Z,98.91
2022-10-22T22:30:36.476Z,99.08
2022-10-22T22:34:04.578Z,99.27
2022-10-22T22:37:31.297Z,99.46
2022-10-22T22:40:59.452Z,99.57
2022-10-22T22:44:26.601Z,99.61
2022-10-22T22:47:53.473Z,99.77
